Time;durP1;ratioP1;P1;durP2;ratioP2;P2;SDS_P1;SDS_P2;PMS_P1;PMS_P2;Temp;Humidity;BMP_temperature;BMP_pressure;BME280_temperature;BME280_humidity;BME280_pressure;Samples;Min_cycle;Max_cycle;Signal;HPM_P1;HPM_P2
2024/04/10 00:00:48;;;;;;;;;;;11.50;99.90;;;;;;5336524;26;20270;-77
2024/04/10 00:03:16;;;;;;;;;;;11.50;99.90;;;;;;5349274;26;19929;-78
2024/04/10 00:06:03;;;;;;;;;;;11.50;99.90;;;;;;5387993;26;20404;-78
2024/04/10 00:08:29;;;;;;;;;;;11.50;99.90;;;;;;5371201;26;19936;-78
2024/04/10 00:10:54;;;;;;;;;;;11.60;99.90;;;;;;5416751;26;20666;-78
2024/04/10 00:13:21;;;;;;;;;;;11.50;99.90;;;;;;5378775;26;19953;-77
2024/04/10 00:15:56;;;;;;;;;;;11.40;99.90;;;;;;5383963;26;20352;-78
2024/04/10 00:18:21;;;;;;;;;;;11.50;99.90;;;;;;5336009;26;19929;-78
2024/04/10 00:20:47;;;;;;;;;;;11.50;99.90;;;;;;5383497;26;19940;-78
2024/04/10 00:23:15;;;;;;;;;;;11.50;99.90;;;;;;5397379;26;20252;-78
2024/04/10 00:25:41;;;;;;;;;;;11.40;99.90;;;;;;5417869;26;19929;-78
2024/04/10 00:28:07;;;;;;;;;;;11.40;99.90;;;;;;5385086;26;19994;-78
2024/04/10 00:30:32;;;;;;;;;;;11.40;99.90;;;;;;5377384;26;19995;-78
2024/04/10 00:32:58;;;;;;;;;;;11.30;99.90;;;;;;5379441;26;19945;-78
2024/04/10 00:35:24;;;;;;;;;;;11.30;99.90;;;;;;5416218;26;20020;-78
2024/04/10 00:37:49;;;;;;;;;;;11.30;99.90;;;;;;5328152;26;19930;-78
2024/04/10 00:40:15;;;;;;;;;;;11.30;99.90;;;;;;5356634;26;19929;-78
2024/04/10 00:42:41;;;;;;;;;;;11.20;99.90;;;;;;5357295;26;19994;-78
2024/04/10 00:45:06;;;;;;;;;;;11.10;99.90;;;;;;5343675;26;19930;-77
2024/04/10 00:47:32;;;;;;;;;;;11.20;99.90;;;;;;5357819;26;19933;-78
2024/04/10 00:49:59;;;;;;;;;;;11.20;99.90;;;;;;5381644;26;19935;-77
2024/04/10 00:52:25;;;;;;;;;;;11.20;99.90;;;;;;5381493;26;20377;-77
2024/04/10 00:54:52;;;;;;;;;;;11.20;99.90;;;;;;5383937;26;20371;-77
2024/04/10 00:57:17;;;;;;;;;;;11.10;99.90;;;;;;5357482;26;19936;-77
2024/04/10 00:59:44;;;;;;;;;;;11.10;99.90;;;;;;5356133;26;19929;-78
2024/04/10 01:02:09;;;;;;;;;;;11.10;99.90;;;;;;5387143;26;19994;-78
2024/04/10 01:04:35;;;;;;;;;;;11.10;99.90;;;;;;5453043;26;19936;-77
2024/04/10 01:07:10;;;;;;;;;;;11.10;99.90;;;;;;5407227;26;19930;-77
2024/04/10 01:09:37;;;;;;;;;;;11.00;99.90;;;;;;5397255;26;19933;-77
2024/04/10 01:12:04;;;;;;;;;;;11.00;99.90;;;;;;5396292;26;19945;-77
2024/04/10 01:14:30;;;;;;;;;;;11.10;99.90;;;;;;5337401;26;19979;-77
2024/04/10 01:16:55;;;;;;;;;;;11.00;99.90;;;;;;5356961;26;19929;-76
2024/04/10 01:19:21;;;;;;;;;;;11.00;99.90;;;;;;5344299;26;19929;-78
2024/04/10 01:21:46;;;;;;;;;;;11.10;99.90;;;;;;5359201;26;19941;-78
2024/04/10 01:24:12;;;;;;;;;;;11.00;99.90;;;;;;5355824;26;19964;-77
2024/04/10 01:26:39;;;;;;;;;;;11.00;99.90;;;;;;5327569;26;19935;-78
2024/04/10 01:29:05;;;;;;;;;;;11.10;99.90;;;;;;5356511;26;19936;-77
2024/04/10 01:31:32;;;;;;;;;;;11.10;99.90;;;;;;5363765;26;19965;-77
2024/04/10 01:33:57;;;;;;;;;;;11.00;99.90;;;;;;5353600;26;20007;-77
2024/04/10 01:36:23;;;;;;;;;;;11.00;99.90;;;;;;5384586;26;20345;-77
2024/04/10 01:38:50;;;;;;;;;;;11.00;99.90;;;;;;5350683;26;20353;-77
2024/04/10 01:41:15;;;;;;;;;;;11.00;99.90;;;;;;5385508;26;19937;-76
2024/04/10 01:43:41;;;;;;;;;;;11.00;99.90;;;;;;5380196;26;19995;-77
2024/04/10 01:46:07;;;;;;;;;;;11.00;99.90;;;;;;5369064;26;19935;-77
2024/04/10 01:48:32;;;;;;;;;;;10.90;99.90;;;;;;5377124;26;20024;-77
2024/04/10 01:50:58;;;;;;;;;;;10.80;99.90;;;;;;5347524;26;19929;-77
2024/04/10 01:53:24;;;;;;;;;;;10.80;99.90;;;;;;5384014;26;19935;-78
2024/04/10 01:55:50;;;;;;;;;;;10.80;99.90;;;;;;5353304;26;19941;-77
2024/04/10 01:58:16;;;;;;;;;;;10.80;99.90;;;;;;5356321;26;19940;-78
2024/04/10 02:00:42;;;;;;;;;;;10.70;99.90;;;;;;5350388;26;20000;-78
2024/04/10 02:03:07;;;;;;;;;;;10.70;99.90;;;;;;5328429;26;20577;-78
2024/04/10 02:05:33;;;;;;;;;;;10.70;99.90;;;;;;5416024;26;20353;-78
2024/04/10 02:07:59;;;;;;;;;;;10.70;99.90;;;;;;5401214;26;20373;-78
2024/04/10 02:10:25;;;;;;;;;;;10.70;99.90;;;;;;5377653;26;20428;-77
2024/04/10 02:12:51;;;;;;;;;;;10.70;99.90;;;;;;5401510;26;19965;-78
2024/04/10 02:15:16;;;;;;;;;;;10.70;99.90;;;;;;5366711;26;19930;-77
2024/04/10 02:17:42;;;;;;;;;;;10.60;99.90;;;;;;5343505;26;19961;-78
2024/04/10 02:20:09;;;;;;;;;;;10.60;99.90;;;;;;5347912;26;19932;-77
2024/04/10 02:22:35;;;;;;;;;;;10.60;99.90;;;;;;5383711;26;19929;-78
2024/04/10 02:25:00;;;;;;;;;;;10.60;99.90;;;;;;5354657;26;19929;-77
2024/04/10 02:27:26;;;;;;;;;;;10.60;99.90;;;;;;5385154;26;19943;-78
2024/04/10 02:29:52;;;;;;;;;;;10.60;99.90;;;;;;5385163;26;19936;-78
2024/04/10 02:32:18;;;;;;;;;;;10.60;99.90;;;;;;5356104;26;19929;-78
2024/04/10 02:34:44;;;;;;;;;;;10.60;99.90;;;;;;5339429;26;19930;-77
2024/04/10 02:37:10;;;;;;;;;;;10.60;99.90;;;;;;5347921;26;20247;-77
2024/04/10 02:39:36;;;;;;;;;;;10.50;99.90;;;;;;5368885;26;19971;-77
2024/04/10 02:42:01;;;;;;;;;;;10.50;99.90;;;;;;5379251;26;20356;-77
2024/04/10 02:44:27;;;;;;;;;;;10.50;99.90;;;;;;5353113;26;19995;-78
2024/04/10 02:46:53;;;;;;;;;;;10.50;99.90;;;;;;5341966;26;19980;-77
2024/04/10 02:49:19;;;;;;;;;;;10.50;99.90;;;;;;5339169;26;19995;-78
2024/04/10 02:51:44;;;;;;;;;;;10.40;99.90;;;;;;5394363;26;20378;-78
2024/04/10 02:54:10;;;;;;;;;;;10.50;99.90;;;;;;5389005;26;19936;-78
2024/04/10 02:56:36;;;;;;;;;;;10.40;99.90;;;;;;5383784;26;19929;-77
2024/04/10 02:59:01;;;;;;;;;;;10.50;99.90;;;;;;5320420;26;19965;-77
2024/04/10 03:01:27;;;;;;;;;;;10.40;99.90;;;;;;5367328;26;19940;-77
2024/04/10 03:03:53;;;;;;;;;;;10.30;99.90;;;;;;5384033;26;19933;-78
2024/04/10 03:06:18;;;;;;;;;;;10.30;99.90;;;;;;5349463;26;19936;-78
2024/04/10 03:08:44;;;;;;;;;;;10.30;99.90;;;;;;5334091;26;19936;-78
2024/04/10 03:11:10;;;;;;;;;;;10.40;99.90;;;;;;5349500;26;19929;-78
2024/04/10 03:13:35;;;;;;;;;;;10.30;99.90;;;;;;5378465;26;19979;-78
2024/04/10 03:16:01;;;;;;;;;;;10.30;99.90;;;;;;5377709;26;20300;-78
2024/04/10 03:18:27;;;;;;;;;;;10.40;99.90;;;;;;5377878;26;19936;-78
2024/04/10 03:20:52;;;;;;;;;;;10.30;99.90;;;;;;5384092;26;19929;-78
2024/04/10 03:23:18;;;;;;;;;;;10.30;99.90;;;;;;5359229;26;19939;-78
2024/04/10 03:25:44;;;;;;;;;;;10.30;99.90;;;;;;5351297;26;20419;-78
2024/04/10 03:28:09;;;;;;;;;;;10.30;99.90;;;;;;5384277;26;19929;-78
2024/04/10 03:30:35;;;;;;;;;;;10.30;99.90;;;;;;5326665;26;20249;-78
2024/04/10 03:33:01;;;;;;;;;;;10.40;99.90;;;;;;5355071;26;20348;-78
2024/04/10 03:35:27;;;;;;;;;;;10.30;99.90;;;;;;5366992;26;19948;-78
2024/04/10 03:37:52;;;;;;;;;;;10.30;99.90;;;;;;5320342;26;19940;-78
2024/04/10 03:40:18;;;;;;;;;;;10.40;99.90;;;;;;5321172;26;19936;-78
2024/04/10 03:42:43;;;;;;;;;;;10.40;99.90;;;;;;5353920;26;20264;-78
2024/04/10 03:45:12;;;;;;;;;;;10.30;99.90;;;;;;5382493;26;19936;-78
2024/04/10 03:47:38;;;;;;;;;;;10.30;99.90;;;;;;5349925;26;19937;-78
2024/04/10 03:50:05;;;;;;;;;;;10.20;99.90;;;;;;5383981;26;19929;-77
2024/04/10 03:52:31;;;;;;;;;;;10.30;99.90;;;;;;5354283;26;19935;-78
2024/04/10 03:54:57;;;;;;;;;;;10.30;99.90;;;;;;5347993;26;19929;-77
2024/04/10 03:57:22;;;;;;;;;;;10.30;99.90;;;;;;5323667;26;19936;-77
2024/04/10 03:59:48;;;;;;;;;;;10.30;99.90;;;;;;5379158;26;19929;-78
2024/04/10 04:02:14;;;;;;;;;;;10.30;99.90;;;;;;5355963;26;20345;-78
2024/04/10 04:04:39;;;;;;;;;;;10.20;99.90;;;;;;5386713;26;19929;-77
2024/04/10 04:07:05;;;;;;;;;;;10.30;99.90;;;;;;5321942;26;19929;-77
2024/04/10 04:09:31;;;;;;;;;;;10.30;99.90;;;;;;5334102;26;19929;-77
2024/04/10 04:11:57;;;;;;;;;;;10.30;99.90;;;;;;5321386;26;19937;-77
2024/04/10 04:14:22;;;;;;;;;;;10.30;99.90;;;;;;5351708;26;20330;-77
2024/04/10 04:16:48;;;;;;;;;;;10.40;99.90;;;;;;5351332;26;20251;-77
2024/04/10 04:19:14;;;;;;;;;;;10.40;99.90;;;;;;5322400;26;19941;-77
2024/04/10 04:21:39;;;;;;;;;;;10.40;99.90;;;;;;5364504;26;20350;-77
2024/04/10 04:24:05;;;;;;;;;;;10.40;99.90;;;;;;5328707;26;19929;-77
2024/04/10 04:26:31;;;;;;;;;;;10.30;99.90;;;;;;5387553;26;20036;-77
2024/04/10 04:28:56;;;;;;;;;;;10.30;99.90;;;;;;5348424;26;19929;-77
2024/04/10 04:31:22;;;;;;;;;;;10.30;99.90;;;;;;5379515;26;19929;-77
2024/04/10 04:33:48;;;;;;;;;;;10.20;99.90;;;;;;5357819;26;19941;-77
2024/04/10 04:36:14;;;;;;;;;;;10.20;99.90;;;;;;5329419;26;19929;-77
2024/04/10 04:38:40;;;;;;;;;;;10.20;99.90;;;;;;5351598;26;19934;-77
2024/04/10 04:41:06;;;;;;;;;;;10.20;99.90;;;;;;5340717;26;19929;-77
2024/04/10 04:43:32;;;;;;;;;;;10.20;99.90;;;;;;5389886;26;20015;-78
2024/04/10 04:45:57;;;;;;;;;;;10.20;99.90;;;;;;5340060;26;19959;-78
2024/04/10 04:48:23;;;;;;;;;;;10.20;99.90;;;;;;5385851;26;19929;-78
2024/04/10 04:50:49;;;;;;;;;;;10.20;99.90;;;;;;5374911;26;19944;-78
2024/04/10 04:53:14;;;;;;;;;;;10.20;99.90;;;;;;5366750;26;19933;-78
2024/04/10 04:55:40;;;;;;;;;;;10.20;99.90;;;;;;5386134;26;19929;-78
2024/04/10 04:58:06;;;;;;;;;;;10.20;99.90;;;;;;5327616;26;20024;-78
2024/04/10 05:00:32;;;;;;;;;;;10.30;99.90;;;;;;5351141;26;19929;-78
2024/04/10 05:02:58;;;;;;;;;;;10.20;99.90;;;;;;5352779;26;19929;-77
2024/04/10 05:05:23;;;;;;;;;;;10.30;99.90;;;;;;5322659;26;19953;-78
2024/04/10 05:07:49;;;;;;;;;;;10.20;99.90;;;;;;5333620;26;19941;-78
2024/04/10 05:10:15;;;;;;;;;;;10.20;99.90;;;;;;5356796;26;19941;-78
2024/04/10 05:12:41;;;;;;;;;;;10.20;99.90;;;;;;5328275;26;19936;-78
2024/04/10 05:15:07;;;;;;;;;;;10.30;99.90;;;;;;5384920;26;19937;-78
2024/04/10 05:17:33;;;;;;;;;;;10.20;99.90;;;;;;5383884;26;19941;-78
2024/04/10 05:19:58;;;;;;;;;;;10.20;99.90;;;;;;5350329;26;19930;-78
2024/04/10 05:22:24;;;;;;;;;;;10.30;99.90;;;;;;5363662;26;19936;-78
2024/04/10 05:24:51;;;;;;;;;;;10.30;99.90;;;;;;5405609;26;19936;-78
2024/04/10 05:27:26;;;;;;;;;;;10.30;99.90;;;;;;5387727;26;19929;-78
2024/04/10 05:29:56;;;;;;;;;;;10.40;99.90;;;;;;5416322;26;19935;-78
2024/04/10 05:32:22;;;;;;;;;;;10.30;99.90;;;;;;5386743;26;19929;-77
2024/04/10 05:34:49;;;;;;;;;;;10.30;99.90;;;;;;5378284;26;20014;-78
2024/04/10 05:37:16;;;;;;;;;;;10.30;99.90;;;;;;5373326;26;19953;-78
2024/04/10 05:39:42;;;;;;;;;;;10.30;99.90;;;;;;5362611;26;19935;-78
2024/04/10 05:42:08;;;;;;;;;;;10.30;99.90;;;;;;5404449;26;19941;-78
2024/04/10 05:44:33;;;;;;;;;;;10.30;99.90;;;;;;5404617;26;19929;-77
2024/04/10 05:47:01;;;;;;;;;;;10.30;99.90;;;;;;5342186;26;20261;-78
2024/04/10 05:49:26;;;;;;;;;;;10.30;99.90;;;;;;5351616;26;19929;-77
2024/04/10 05:51:52;;;;;;;;;;;10.30;99.90;;;;;;5356544;26;19940;-76
2024/04/10 05:54:17;;;;;;;;;;;10.30;99.90;;;;;;5385466;26;19929;-77
2024/04/10 05:56:43;;;;;;;;;;;10.30;99.90;;;;;;5355403;26;20234;-76
2024/04/10 05:59:09;;;;;;;;;;;10.30;99.90;;;;;;5353222;26;19948;-77
2024/04/10 06:01:36;;;;;;;;;;;10.20;99.90;;;;;;5327251;26;20779;-77
2024/04/10 06:04:02;;;;;;;;;;;10.30;99.90;;;;;;5349853;26;19965;-77
2024/04/10 06:06:28;;;;;;;;;;;10.30;99.90;;;;;;5400966;26;19964;-78
2024/04/10 06:08:53;;;;;;;;;;;10.30;99.90;;;;;;5391489;26;19936;-77
2024/04/10 06:11:19;;;;;;;;;;;10.30;99.90;;;;;;5355544;26;19929;-78
2024/04/10 06:13:47;;;;;;;;;;;10.40;99.90;;;;;;5355303;26;19929;-78
2024/04/10 06:16:12;;;;;;;;;;;10.30;99.90;;;;;;5326929;26;19939;-77
2024/04/10 06:18:39;;;;;;;;;;;10.30;99.90;;;;;;5344121;26;19929;-77
2024/04/10 06:21:04;;;;;;;;;;;10.30;99.90;;;;;;5350025;26;20360;-77
2024/04/10 06:23:32;;;;;;;;;;;10.30;99.90;;;;;;5294525;26;19929;-77
2024/04/10 06:25:57;;;;;;;;;;;10.30;99.90;;;;;;5370863;26;19994;-77
2024/04/10 06:28:24;;;;;;;;;;;10.30;99.90;;;;;;5355094;26;19937;-77
2024/04/10 06:30:56;;;;;;;;;;;10.30;99.90;;;;;;5381176;26;20341;-77
2024/04/10 06:33:21;;;;;;;;;;;10.30;99.90;;;;;;5393490;26;19933;-77
2024/04/10 06:35:47;;;;;;;;;;;10.30;99.90;;;;;;5354694;26;19963;-77
2024/04/10 06:38:13;;;;;;;;;;;10.30;99.90;;;;;;5357718;26;19941;-77
2024/04/10 06:40:39;;;;;;;;;;;10.20;99.90;;;;;;5350659;26;20416;-77
2024/04/10 06:43:04;;;;;;;;;;;10.30;99.90;;;;;;5415709;26;19929;-77
2024/04/10 06:46:54;;;;;;;;;;;10.30;99.90;;;;;;5622371;25;19922;-78
2024/04/10 06:49:20;;;;;;;;;;;10.30;99.90;;;;;;5558304;25;19926;-76
2024/04/10 06:51:45;;;;;;;;;;;10.30;99.90;;;;;;5524869;25;19927;-77
2024/04/10 06:54:11;;;;;;;;;;;10.30;99.90;;;;;;5542435;25;19933;-77
2024/04/10 06:56:37;;;;;;;;;;;10.30;99.90;;;;;;5519711;25;19959;-78
2024/04/10 06:59:04;;;;;;;;;;;10.40;99.90;;;;;;5513822;25;19934;-76
2024/04/10 07:01:29;;;;;;;;;;;10.30;99.90;;;;;;5570700;25;19931;-77
2024/04/10 07:03:55;;;;;;;;;;;10.40;99.90;;;;;;5518985;25;19934;-78
2024/04/10 07:06:21;;;;;;;;;;;10.40;99.90;;;;;;5538534;25;19927;-78
2024/04/10 07:08:47;;;;;;;;;;;10.40;99.90;;;;;;5536292;25;20244;-77
2024/04/10 07:11:16;;;;;;;;;;;10.40;99.90;;;;;;5519090;25;19934;-76
2024/04/10 07:13:44;;;;;;;;;;;10.40;99.90;;;;;;5550256;25;19933;-77
2024/04/10 07:16:09;;;;;;;;;;;10.40;99.90;;;;;;5492785;25;20335;-78
2024/04/10 07:18:36;;;;;;;;;;;10.50;99.90;;;;;;5465854;25;19959;-78
2024/04/10 07:21:03;;;;;;;;;;;10.50;99.90;;;;;;5517057;25;19938;-78
2024/04/10 07:23:29;;;;;;;;;;;10.50;99.90;;;;;;5517556;25;19933;-78
2024/04/10 07:25:55;;;;;;;;;;;10.50;99.90;;;;;;5522194;25;19927;-77
2024/04/10 07:28:21;;;;;;;;;;;10.60;99.90;;;;;;5516787;25;19927;-78
2024/04/10 07:30:48;;;;;;;;;;;10.70;99.90;;;;;;5570934;25;20005;-76
2024/04/10 07:33:14;;;;;;;;;;;10.70;99.90;;;;;;5556581;25;19933;-78
2024/04/10 07:35:39;;;;;;;;;;;10.70;99.90;;;;;;5535982;25;19943;-77
2024/04/10 07:38:05;;;;;;;;;;;10.70;99.90;;;;;;5526956;25;19930;-78
2024/04/10 07:40:31;;;;;;;;;;;10.80;99.90;;;;;;5512873;25;19927;-77
2024/04/10 07:42:56;;;;;;;;;;;10.80;99.90;;;;;;5534351;25;20334;-78
2024/04/10 07:45:22;;;;;;;;;;;10.80;99.90;;;;;;5523984;25;19934;-76
2024/04/10 07:47:48;;;;;;;;;;;10.90;99.90;;;;;;5542584;25;19938;-76
2024/04/10 07:50:13;;;;;;;;;;;10.90;99.90;;;;;;5548779;25;19954;-78
2024/04/10 07:52:40;;;;;;;;;;;10.90;99.90;;;;;;5518474;25;20363;-78
2024/04/10 07:55:06;;;;;;;;;;;10.90;99.90;;;;;;5580238;25;19933;-78
2024/04/10 07:57:32;;;;;;;;;;;10.80;99.90;;;;;;5537305;25;19939;-78
2024/04/10 07:59:58;;;;;;;;;;;10.80;99.90;;;;;;5546874;25;19926;-78
2024/04/10 08:02:23;;;;;;;;;;;10.90;99.90;;;;;;5535146;25;19991;-79
2024/04/10 08:04:49;;;;;;;;;;;10.80;99.90;;;;;;5503971;25;19931;-78
2024/04/10 08:07:15;;;;;;;;;;;10.80;99.90;;;;;;5526551;25;20756;-77
2024/04/10 08:09:41;;;;;;;;;;;10.80;99.90;;;;;;5511963;25;19927;-78
2024/04/10 08:12:06;;;;;;;;;;;10.80;99.90;;;;;;5481250;26;19936;-78
2024/04/10 08:14:32;;;;;;;;;;;10.70;99.90;;;;;;5482482;26;20329;-77
2024/04/10 08:16:59;;;;;;;;;;;10.70;99.90;;;;;;5491207;26;19973;-77
2024/04/10 08:19:25;;;;;;;;;;;10.80;99.90;;;;;;5485934;25;19942;-77
2024/04/10 08:21:51;;;;;;;;;;;10.80;99.90;;;;;;5463810;26;19927;-78
2024/04/10 08:24:16;;;;;;;;;;;10.70;99.90;;;;;;5497353;26;19942;-76
2024/04/10 08:26:45;;;;;;;;;;;10.80;99.90;;;;;;5498375;25;19936;-77
2024/04/10 08:29:11;;;;;;;;;;;10.80;99.90;;;;;;5456339;26;19960;-77
2024/04/10 08:31:36;;;;;;;;;;;10.70;99.90;;;;;;5483205;26;20520;-77
2024/04/10 08:34:02;;;;;;;;;;;10.80;99.90;;;;;;5465422;26;19927;-77
2024/04/10 08:36:28;;;;;;;;;;;10.90;99.90;;;;;;5496726;26;19931;-78
2024/04/10 08:38:53;;;;;;;;;;;11.00;99.90;;;;;;5465082;26;19994;-77
2024/04/10 08:41:19;;;;;;;;;;;11.20;99.90;;;;;;5465301;25;19934;-78
2024/04/10 08:43:46;;;;;;;;;;;11.20;99.90;;;;;;5496536;26;19927;-77
2024/04/10 08:46:12;;;;;;;;;;;11.40;99.90;;;;;;5528364;26;19927;-78
2024/04/10 08:48:41;;;;;;;;;;;11.40;99.90;;;;;;5504379;25;19972;-78
2024/04/10 08:51:08;;;;;;;;;;;11.40;99.90;;;;;;5487918;26;20028;-78
2024/04/10 08:53:35;;;;;;;;;;;11.50;99.90;;;;;;5452067;26;19939;-78
2024/04/10 08:56:01;;;;;;;;;;;11.60;99.90;;;;;;5440058;26;19961;-78
2024/04/10 08:58:27;;;;;;;;;;;11.60;99.90;;;;;;5439692;26;19927;-78
2024/04/10 09:00:52;;;;;;;;;;;11.70;99.90;;;;;;5467100;26;19931;-78
2024/04/10 09:03:18;;;;;;;;;;;11.90;99.90;;;;;;5436441;26;19934;-78
2024/04/10 09:05:43;;;;;;;;;;;11.90;99.90;;;;;;5497922;26;19927;-78
2024/04/10 09:08:09;;;;;;;;;;;11.80;99.90;;;;;;5490306;26;19928;-78
2024/04/10 09:10:35;;;;;;;;;;;11.90;99.90;;;;;;5496805;26;19927;-78
2024/04/10 09:13:01;;;;;;;;;;;11.70;99.90;;;;;;5495896;26;19928;-78
2024/04/10 09:15:27;;;;;;;;;;;11.60;99.90;;;;;;5500677;25;20279;-78
2024/04/10 09:17:55;;;;;;;;;;;11.60;99.90;;;;;;5500076;26;19992;-77
2024/04/10 09:20:21;;;;;;;;;;;11.50;99.90;;;;;;5532257;25;19938;-78
2024/04/10 09:23:00;;;;;;;;;;;11.60;99.90;;;;;;5546589;25;20344;-78
2024/04/10 09:25:26;;;;;;;;;;;11.60;99.90;;;;;;5466637;26;20112;-78
2024/04/10 09:28:02;;;;;;;;;;;11.70;99.90;;;;;;5492732;26;20349;-78
2024/04/10 09:30:28;;;;;;;;;;;11.70;99.90;;;;;;5467725;25;20283;-78
2024/04/10 09:32:54;;;;;;;;;;;11.70;99.90;;;;;;5442543;26;19928;-77
2024/04/10 09:35:24;;;;;;;;;;;11.70;99.90;;;;;;5431903;26;19936;-77
2024/04/10 09:37:49;;;;;;;;;;;11.60;99.90;;;;;;5499669;26;19939;-77
2024/04/10 09:40:20;;;;;;;;;;;11.60;99.90;;;;;;5506616;25;20030;-77
2024/04/10 09:42:46;;;;;;;;;;;11.60;99.90;;;;;;5461294;26;19928;-78
2024/04/10 09:45:15;;;;;;;;;;;11.80;99.90;;;;;;5491708;26;19928;-78
2024/04/10 09:47:45;;;;;;;;;;;11.90;99.90;;;;;;5498931;25;19927;-77
2024/04/10 09:50:14;;;;;;;;;;;11.90;99.90;;;;;;5467105;26;19935;-78
2024/04/10 09:52:39;;;;;;;;;;;11.90;99.90;;;;;;5462011;26;20355;-78
2024/04/10 09:55:05;;;;;;;;;;;11.90;99.90;;;;;;5465888;25;20004;-77
2024/04/10 09:57:31;;;;;;;;;;;12.10;99.90;;;;;;5475546;26;20413;-78
2024/04/10 09:59:56;;;;;;;;;;;12.20;99.90;;;;;;5458626;26;19928;-77
2024/04/10 10:02:22;;;;;;;;;;;12.30;99.90;;;;;;5488699;26;19927;-77
2024/04/10 10:04:48;;;;;;;;;;;12.40;99.90;;;;;;5522000;25;20354;-78
2024/04/10 10:07:20;;;;;;;;;;;12.30;99.90;;;;;;5473149;25;19927;-78
2024/04/10 10:09:46;;;;;;;;;;;12.50;99.90;;;;;;5532995;25;20307;-78
2024/04/10 10:12:12;;;;;;;;;;;12.70;99.90;;;;;;5467786;26;19928;-78
2024/04/10 10:14:37;;;;;;;;;;;12.70;99.90;;;;;;5526889;26;19992;-77
2024/04/10 10:17:09;;;;;;;;;;;12.70;99.90;;;;;;5471678;25;19999;-78
2024/04/10 10:19:35;;;;;;;;;;;12.60;99.90;;;;;;5516167;26;19928;-77
2024/04/10 10:22:01;;;;;;;;;;;12.60;99.90;;;;;;5494887;26;19928;-78
2024/04/10 10:24:29;;;;;;;;;;;12.60;99.90;;;;;;5465321;26;19934;-78
2024/04/10 10:27:00;;;;;;;;;;;12.60;99.90;;;;;;5528192;26;19964;-77
2024/04/10 10:29:27;;;;;;;;;;;12.50;99.90;;;;;;5465771;26;20243;-77
2024/04/10 10:32:06;;;;;;;;;;;12.40;99.90;;;;;;5487378;25;19934;-78
2024/04/10 10:34:31;;;;;;;;;;;12.50;99.90;;;;;;5487556;26;20353;-78
2024/04/10 10:37:04;;;;;;;;;;;12.80;99.90;;;;;;5495608;26;19947;-77
2024/04/10 10:39:31;;;;;;;;;;;12.90;99.90;;;;;;5495371;26;20413;-77
2024/04/10 10:42:00;;;;;;;;;;;12.70;99.90;;;;;;5482359;25;20000;-78
2024/04/10 10:44:26;;;;;;;;;;;12.60;99.90;;;;;;5430719;26;19936;-77
2024/04/10 10:46:52;;;;;;;;;;;12.60;99.90;;;;;;5409631;26;20007;-77
2024/04/10 10:49:17;;;;;;;;;;;12.60;99.90;;;;;;5448957;26;19931;-78
2024/04/10 10:51:43;;;;;;;;;;;12.60;99.90;;;;;;5524098;25;19931;-78
2024/04/10 10:54:09;;;;;;;;;;;12.70;99.90;;;;;;5531675;25;19933;-77
2024/04/10 10:56:35;;;;;;;;;;;12.70;99.90;;;;;;5500516;25;19927;-77
2024/04/10 10:59:07;;;;;;;;;;;12.80;99.90;;;;;;5500994;25;19930;-78
2024/04/10 11:01:34;;;;;;;;;;;12.90;99.90;;;;;;5463339;26;19957;-76
2024/04/10 11:04:09;;;;;;;;;;;13.30;99.90;;;;;;5434752;26;19928;-78
2024/04/10 11:06:35;;;;;;;;;;;13.40;99.90;;;;;;5506056;25;19927;-78
2024/04/10 11:09:05;;;;;;;;;;;13.50;99.90;;;;;;5482114;26;19939;-76
2024/04/10 11:11:30;;;;;;;;;;;13.50;99.90;;;;;;5437400;26;19928;-78
2024/04/10 11:13:56;;;;;;;;;;;13.50;99.90;;;;;;5490010;26;19994;-78
2024/04/10 11:16:26;;;;;;;;;;;13.50;99.90;;;;;;5436691;25;19934;-78
2024/04/10 11:18:51;;;;;;;;;;;13.50;99.90;;;;;;5459239;26;19928;-78
2024/04/10 11:21:17;;;;;;;;;;;13.50;99.90;;;;;;5542867;25;19934;-78
2024/04/10 11:23:43;;;;;;;;;;;13.70;99.90;;;;;;5465430;26;19928;-78
2024/04/10 11:26:08;;;;;;;;;;;13.70;99.90;;;;;;5487885;26;19934;-78
2024/04/10 11:28:34;;;;;;;;;;;13.80;99.90;;;;;;5494148;26;19935;-78
2024/04/10 11:31:00;;;;;;;;;;;13.80;99.90;;;;;;5523860;25;19968;-78
2024/04/10 11:33:26;;;;;;;;;;;13.80;99.90;;;;;;5405590;25;20138;-78
2024/04/10 11:35:51;;;;;;;;;;;13.60;99.90;;;;;;5530806;26;19934;-78
2024/04/10 11:38:17;;;;;;;;;;;13.50;99.90;;;;;;5432198;26;19957;-79
2024/04/10 11:40:43;;;;;;;;;;;13.50;99.90;;;;;;5472142;26;19939;-77
2024/04/10 11:43:08;;;;;;;;;;;13.40;99.90;;;;;;5462404;26;19955;-77
2024/04/10 11:45:34;;;;;;;;;;;13.30;99.90;;;;;;5443767;26;19980;-78
2024/04/10 11:48:00;;;;;;;;;;;13.20;99.90;;;;;;5506733;26;19927;-78
2024/04/10 11:50:26;;;;;;;;;;;13.30;99.90;;;;;;5477945;26;19968;-78
2024/04/10 11:52:51;;;;;;;;;;;13.60;99.90;;;;;;5477333;26;19940;-78
2024/04/10 11:55:17;;;;;;;;;;;14.10;99.90;;;;;;5455907;26;20334;-78
2024/04/10 11:57:45;;;;;;;;;;;14.30;99.90;;;;;;5425330;26;19936;-77
2024/04/10 12:00:12;;;;;;;;;;;14.40;99.90;;;;;;5462076;26;19929;-77
2024/04/10 12:02:37;;;;;;;;;;;14.40;99.90;;;;;;5509811;26;19943;-77
2024/04/10 12:05:05;;;;;;;;;;;14.40;99.90;;;;;;5494335;26;19997;-77
2024/04/10 12:07:31;;;;;;;;;;;14.30;99.90;;;;;;5504947;26;19927;-77
2024/04/10 12:09:57;;;;;;;;;;;14.20;99.90;;;;;;5498463;26;19929;-78
2024/04/10 12:12:23;;;;;;;;;;;14.10;99.90;;;;;;5506944;26;19935;-75
2024/04/10 12:14:48;;;;;;;;;;;13.90;99.90;;;;;;5516499;26;19955;-77
2024/04/10 12:17:14;;;;;;;;;;;13.90;99.90;;;;;;5519158;26;19993;-75
2024/04/10 12:19:39;;;;;;;;;;;13.90;99.90;;;;;;5489379;26;19935;-76
2024/04/10 12:22:11;;;;;;;;;;;13.80;99.90;;;;;;5490312;26;19938;-76
2024/04/10 12:24:36;;;;;;;;;;;13.80;99.90;;;;;;5463353;26;20000;-77
2024/04/10 12:27:02;;;;;;;;;;;13.70;99.90;;;;;;5486960;26;20701;-75
2024/04/10 12:29:28;;;;;;;;;;;13.60;99.90;;;;;;5454132;26;20352;-75
2024/04/10 12:31:54;;;;;;;;;;;13.60;99.90;;;;;;5490990;26;19928;-77
2024/04/10 12:34:20;;;;;;;;;;;13.60;99.90;;;;;;5491066;26;19928;-77
2024/04/10 12:39:30;;;;;;;;;;;13.70;99.90;;;;;;5490262;26;19936;-75
2024/04/10 12:41:56;;;;;;;;;;;13.70;99.90;;;;;;5491374;26;20315;-77
2024/04/10 12:44:22;;;;;;;;;;;13.70;99.90;;;;;;5491737;26;19928;-75
2024/04/10 12:46:55;;;;;;;;;;;13.80;99.90;;;;;;5459622;26;19934;-76
2024/04/10 12:49:21;;;;;;;;;;;13.80;99.90;;;;;;5479536;26;19996;-76
2024/04/10 12:51:50;;;;;;;;;;;13.70;99.90;;;;;;5480586;26;20402;-77
2024/04/10 12:54:15;;;;;;;;;;;13.70;99.90;;;;;;5483906;26;19929;-76
2024/04/10 12:56:42;;;;;;;;;;;13.70;99.90;;;;;;5465822;26;20255;-77
2024/04/10 12:59:08;;;;;;;;;;;13.70;99.90;;;;;;5487382;26;20563;-76
2024/04/10 13:01:34;;;;;;;;;;;13.80;99.90;;;;;;5498249;26;20409;-77
2024/04/10 13:04:00;;;;;;;;;;;13.70;99.90;;;;;;5460397;26;19928;-77
2024/04/10 13:06:26;;;;;;;;;;;13.60;99.90;;;;;;5483508;26;19938;-76
2024/04/10 13:08:51;;;;;;;;;;;13.60;99.90;;;;;;5490146;26;19934;-77
2024/04/10 13:11:17;;;;;;;;;;;13.60;99.90;;;;;;5452257;26;19944;-77
2024/04/10 13:13:43;;;;;;;;;;;13.90;99.90;;;;;;5511471;26;19935;-77
2024/04/10 13:16:09;;;;;;;;;;;14.40;99.90;;;;;;5495927;26;19927;-77
2024/04/10 13:18:34;;;;;;;;;;;14.60;98.80;;;;;;5492242;26;19927;-77
2024/04/10 13:21:00;;;;;;;;;;;14.50;99.00;;;;;;5493285;26;19941;-77
2024/04/10 13:23:34;;;;;;;;;;;14.30;98.80;;;;;;5443501;26;19936;-77
2024/04/10 13:26:12;;;;;;;;;;;14.20;97.80;;;;;;5467111;26;19935;-77
2024/04/10 13:28:38;;;;;;;;;;;14.20;98.70;;;;;;5511808;26;19996;-76
2024/04/10 13:31:09;;;;;;;;;;;14.60;99.80;;;;;;5523763;26;19935;-77
2024/04/10 13:33:34;;;;;;;;;;;14.80;99.00;;;;;;5519445;25;19928;-76
2024/04/10 13:36:07;;;;;;;;;;;15.10;99.80;;;;;;5486927;26;19943;-77
2024/04/10 13:38:33;;;;;;;;;;;15.40;98.80;;;;;;5522270;26;19996;-77
2024/04/10 13:41:04;;;;;;;;;;;15.40;99.00;;;;;;5476556;26;19928;-77
2024/04/10 13:43:30;;;;;;;;;;;15.50;98.60;;;;;;5486527;26;19935;-77
2024/04/10 13:45:56;;;;;;;;;;;15.70;98.60;;;;;;5486542;26;19938;-77
2024/04/10 13:48:22;;;;;;;;;;;15.70;98.00;;;;;;5482683;26;19928;-77
2024/04/10 13:50:47;;;;;;;;;;;15.60;97.80;;;;;;5534276;25;19927;-77
2024/04/10 13:53:13;;;;;;;;;;;15.40;98.00;;;;;;5486778;26;20010;-77
2024/04/10 13:55:39;;;;;;;;;;;15.20;98.20;;;;;;5435558;26;19927;-77
2024/04/10 13:58:06;;;;;;;;;;;14.90;98.60;;;;;;5519861;26;19951;-77
2024/04/10 14:00:31;;;;;;;;;;;14.90;98.50;;;;;;5523672;26;20259;-77
2024/04/10 14:03:00;;;;;;;;;;;14.80;98.70;;;;;;5428690;26;19932;-77
2024/04/10 14:05:26;;;;;;;;;;;14.70;99.30;;;;;;5453812;26;20036;-77
2024/04/10 14:07:52;;;;;;;;;;;14.60;99.30;;;;;;5486264;26;19935;-77
2024/04/10 14:10:17;;;;;;;;;;;14.90;99.70;;;;;;5498620;26;19938;-77
2024/04/10 14:12:43;;;;;;;;;;;15.10;99.20;;;;;;5484682;26;19928;-77
2024/04/10 14:15:09;;;;;;;;;;;15.30;98.60;;;;;;5451297;26;19935;-77